createdAt,value
2022-09-20T00:01:21.807Z,73.32
2022-09-20T00:03:51.412Z,73.40
2022-09-20T00:06:21.557Z,72.48
2022-09-20T00:08:49.395Z,72.62
2022-09-20T00:11:19.064Z,72.53
2022-09-20T00:13:47.917Z,72.58
2022-09-20T00:16:18.123Z,72.80
2022-09-20T00:18:49.454Z,72.69
2022-09-20T00:21:18.878Z,72.71
2022-09-20T00:23:45.674Z,72.77
2022-09-20T00:26:14.092Z,72.77
2022-09-20T00:28:41.735Z,73.15
2022-09-20T00:31:08.703Z,72.96
2022-09-20T00:33:54.189Z,73.18
2022-09-20T00:36:20.991Z,73.16
2022-09-20T00:38:47.837Z,73.24
2022-09-20T00:41:14.835Z,73.33
2022-09-20T00:43:45.345Z,73.34
2022-09-20T00:46:17.957Z,73.46
2022-09-20T00:48:45.086Z,73.70
2022-09-20T00:51:16.762Z,73.62
2022-09-20T00:53:48.774Z,73.78
2022-09-20T00:56:29.823Z,73.97
2022-09-20T00:59:16.609Z,74.48
2022-09-20T01:01:46.571Z,73.51
2022-09-20T01:04:16.358Z,73.17
2022-09-20T01:06:46.350Z,73.34
2022-09-20T01:09:13.255Z,73.47
2022-09-20T01:11:41.209Z,73.03
2022-09-20T01:14:08.847Z,72.17
2022-09-20T01:16:36.967Z,72.32
2022-09-20T01:19:15.109Z,72.34
2022-09-20T01:21:42.109Z,71.63
2022-09-20T01:24:19.002Z,71.46
2022-09-20T01:27:10.006Z,70.52
2022-09-20T01:30:21.549Z,70.19
2022-09-20T01:33:03.122Z,70.74
2022-09-20T01:35:34.434Z,70.65
2022-09-20T01:38:04.134Z,70.58
2022-09-20T01:40:45.734Z,71.17
2022-09-20T01:43:24.846Z,71.63
2022-09-20T01:45:53.199Z,72.04
2022-09-20T01:48:36.232Z,72.04
2022-09-20T01:51:05.935Z,72.32
2022-09-20T01:53:56.955Z,72.63
2022-09-20T01:56:45.298Z,73.68
2022-09-20T01:59:24.322Z,74.51
2022-09-20T02:01:54.337Z,74.67
2022-09-20T02:04:33.192Z,74.85
2022-09-20T02:07:20.283Z,74.83
2022-09-20T02:09:58.572Z,74.56
2022-09-20T02:12:54.458Z,74.96
2022-09-20T02:15:48.215Z,75.58
2022-09-20T02:18:24.106Z,75.57
2022-09-20T02:21:34.574Z,75.50
2022-09-20T02:24:26.350Z,75.11
2022-09-20T02:27:11.474Z,74.82
2022-09-20T02:30:12.915Z,74.71
2022-09-20T02:32:58.229Z,75.04
2022-09-20T02:35:42.057Z,75.49
2022-09-20T02:38:36.621Z,76.13
2022-09-20T02:41:31.060Z,76.96
2022-09-20T02:44:22.453Z,78.30
2022-09-20T02:47:09.054Z,80.00
2022-09-20T02:49:58.981Z,81.15
2022-09-20T02:52:49.120Z,82.35
2022-09-20T02:55:41.845Z,83.25
2022-09-20T02:58:39.170Z,84.07
2022-09-20T03:01:11.673Z,84.58
2022-09-20T03:03:50.624Z,85.36
2022-09-20T03:06:30.349Z,85.66
2022-09-20T03:09:14.053Z,85.90
2022-09-20T03:12:00.906Z,85.93
2022-09-20T03:14:57.721Z,85.36
2022-09-20T03:17:42.548Z,85.35
2022-09-20T03:20:15.401Z,85.22
2022-09-20T03:23:06.893Z,85.39
2022-09-20T03:26:02.399Z,85.35
2022-09-20T03:28:54.147Z,85.59
2022-09-20T03:31:48.796Z,85.24
2022-09-20T03:34:58.362Z,85.38
2022-09-20T03:37:39.715Z,84.87
2022-09-20T03:40:15.970Z,84.47
2022-09-20T03:42:58.959Z,84.56
2022-09-20T03:45:56.603Z,83.99
2022-09-20T03:48:35.922Z,83.78
2022-09-20T03:51:23.750Z,83.39
2022-09-20T03:53:53.666Z,82.84
2022-09-20T03:57:01.870Z,82.67
2022-09-20T03:59:43.994Z,82.53
2022-09-20T04:02:29.526Z,82.30
2022-09-20T04:05:01.260Z,82.21
2022-09-20T04:07:49.531Z,81.27
2022-09-20T04:10:38.216Z,81.17
2022-09-20T04:13:16.384Z,81.35
2022-09-20T04:16:01.793Z,81.71
2022-09-20T04:18:28.570Z,81.84
2022-09-20T04:21:23.953Z,82.03
2022-09-20T04:24:16.596Z,82.27
2022-09-20T04:26:51.894Z,82.22
2022-09-20T04:29:26.570Z,82.52
2022-09-20T04:32:04.080Z,82.80
2022-09-20T04:35:21.359Z,82.64
2022-09-20T04:37:49.736Z,83.06
2022-09-20T04:40:25.662Z,83.28
2022-09-20T04:43:40.769Z,83.32
2022-09-20T04:46:35.851Z,83.32
2022-09-20T04:49:21.417Z,83.04
2022-09-20T04:51:58.340Z,83.40
2022-09-20T04:54:49.286Z,82.93
2022-09-20T04:57:34.581Z,82.65
2022-09-20T05:00:12.953Z,82.96
2022-09-20T05:03:04.397Z,82.36
2022-09-20T05:05:46.258Z,81.58
2022-09-20T05:08:31.785Z,81.06
2022-09-20T05:11:12.921Z,80.82
2022-09-20T05:13:57.734Z,80.87
2022-09-20T05:16:50.511Z,80.39
2022-09-20T05:19:43.334Z,79.90
2022-09-20T05:22:44.336Z,79.09
2022-09-20T05:25:46.751Z,78.91
2022-09-20T05:28:16.590Z,79.07
2022-09-20T05:30:58.561Z,77.79
2022-09-20T05:33:40.462Z,77.56
2022-09-20T05:36:16.715Z,77.52
2022-09-20T05:39:02.824Z,77.64
2022-09-20T05:41:35.597Z,77.36
2022-09-20T05:44:18.615Z,77.24
2022-09-20T05:46:55.030Z,77.07
2022-09-20T05:49:55.824Z,76.90
2022-09-20T05:52:39.624Z,76.55
2022-09-20T05:55:20.863Z,75.95
2022-09-20T05:58:05.957Z,75.82
2022-09-20T06:00:44.652Z,74.51
2022-09-20T06:03:36.773Z,74.68
2022-09-20T06:06:30.346Z,75.50
2022-09-20T06:09:28.878Z,74.14
2022-09-20T06:12:14.092Z,74.98
2022-09-20T06:15:18.010Z,74.72
2022-09-20T06:18:14.092Z,74.00
2022-09-20T06:21:02.530Z,73.92
2022-09-20T06:23:31.416Z,74.36
2022-09-20T06:26:29.950Z,74.90
2022-09-20T06:29:03.361Z,73.76
2022-09-20T06:31:30.290Z,72.37
2022-09-20T06:34:10.717Z,72.16
2022-09-20T06:37:01.607Z,71.85
2022-09-20T06:39:56.322Z,70.45
2022-09-20T06:42:26.937Z,69.71
2022-09-20T06:44:54.461Z,69.48
2022-09-20T06:47:23.329Z,68.90
2022-09-20T06:49:50.559Z,68.48
2022-09-20T06:52:19.574Z,67.85
2022-09-20T06:54:48.350Z,68.12
2022-09-20T06:57:19.196Z,68.26
2022-09-20T06:59:46.006Z,66.59
2022-09-20T07:02:13.016Z,65.93
2022-09-20T07:04:40.206Z,65.22
2022-09-20T07:07:09.718Z,65.07
2022-09-20T07:09:36.894Z,63.90
2022-09-20T07:12:03.949Z,63.46
2022-09-20T07:14:31.260Z,63.45
2022-09-20T07:16:58.062Z,63.32
2022-09-20T07:19:24.821Z,62.81
2022-09-20T07:21:51.676Z,62.48
2022-09-20T07:24:18.524Z,62.58
2022-09-20T07:27:01.562Z,62.28
2022-09-20T07:29:29.321Z,62.37
2022-09-20T07:31:57.194Z,63.02
2022-09-20T07:34:24.556Z,62.63
2022-09-20T07:36:51.464Z,61.34
2022-09-20T07:39:18.930Z,60.25
2022-09-20T07:41:48.676Z,59.59
2022-09-20T07:44:24.428Z,60.25
2022-09-20T07:46:53.239Z,60.89
2022-09-20T07:49:21.411Z,59.02
2022-09-20T07:51:49.972Z,58.30
2022-09-20T07:54:17.722Z,57.99
2022-09-20T07:56:45.691Z,57.05
2022-09-20T07:59:13.853Z,57.91
2022-09-20T08:01:41.380Z,57.20
2022-09-20T08:04:09.428Z,56.38
2022-09-20T08:06:38.154Z,56.63
2022-09-20T08:09:10.222Z,56.49
2022-09-20T08:11:39.690Z,54.07
2022-09-20T08:14:09.131Z,51.58
2022-09-20T08:16:41.484Z,48.80
2022-09-20T08:19:09.271Z,49.44
2022-09-20T08:21:38.997Z,51.81
2022-09-20T08:24:06.089Z,51.51
2022-09-20T08:26:35.572Z,48.77
2022-09-20T08:29:03.189Z,48.31
2022-09-20T08:31:34.511Z,47.03
2022-09-20T08:34:04.025Z,46.39
2022-09-20T08:36:36.422Z,46.70
2022-09-20T08:42:03.827Z,46.18
2022-09-20T08:44:45.331Z,44.69
2022-09-20T08:47:12.466Z,45.22
2022-09-20T08:49:46.142Z,43.82
2022-09-20T08:52:24.517Z,44.22
2022-09-20T08:54:51.518Z,45.05
2022-09-20T08:57:20.847Z,45.29
2022-09-20T08:59:48.458Z,45.36
2022-09-20T09:02:21.303Z,45.48
2022-09-20T09:04:49.991Z,45.90
2022-09-20T09:07:22.099Z,44.89
2022-09-20T09:09:52.117Z,44.73
2022-09-20T09:12:31.070Z,45.18
2022-09-20T09:15:00.973Z,46.19
2022-09-20T09:17:30.377Z,45.53
2022-09-20T09:20:21.762Z,45.55
2022-09-20T09:23:00.116Z,45.98
2022-09-20T09:25:38.125Z,45.71
2022-09-20T09:28:15.572Z,45.88
2022-09-20T09:30:47.762Z,43.61
2022-09-20T09:33:20.389Z,43.11
2022-09-20T09:36:05.393Z,43.47
2022-09-20T09:38:35.541Z,43.31
2022-09-20T09:41:26.843Z,43.24
2022-09-20T09:44:11.130Z,42.29
2022-09-20T09:46:40.352Z,42.30
2022-09-20T09:49:17.419Z,42.83
2022-09-20T09:52:01.752Z,41.66
2022-09-20T09:54:36.597Z,41.65
2022-09-20T09:57:40.465Z,40.57
2022-09-20T10:00:20.359Z,39.41
2022-09-20T10:03:07.679Z,39.77
2022-09-20T10:05:55.209Z,40.82
2022-09-20T10:08:54.349Z,40.46
2022-09-20T10:11:38.451Z,40.30
2022-09-20T10:14:22.966Z,40.13
2022-09-20T10:16:58.703Z,40.85
2022-09-20T10:19:34.593Z,40.83
2022-09-20T10:22:28.742Z,38.90
2022-09-20T10:25:10.425Z,39.09
2022-09-20T10:27:55.690Z,38.17
2022-09-20T10:30:42.266Z,37.28
2022-09-20T10:33:32.805Z,37.78
2022-09-20T10:36:21.369Z,37.10
2022-09-20T10:39:14.241Z,36.38
2022-09-20T10:42:02.847Z,36.07
2022-09-20T10:44:57.230Z,36.73
2022-09-20T10:47:37.548Z,36.86
2022-09-20T10:50:35.101Z,37.09
2022-09-20T10:53:11.965Z,37.23
2022-09-20T10:55:48.817Z,37.00
2022-09-20T10:58:38.610Z,36.97
2022-09-20T11:01:39.219Z,36.30
2022-09-20T11:04:54.266Z,35.53
2022-09-20T11:07:37.927Z,35.84
2022-09-20T11:10:36.835Z,35.42
2022-09-20T11:13:38.867Z,36.31
2022-09-20T11:16:29.419Z,35.02
2022-09-20T11:19:05.718Z,35.97
2022-09-20T11:21:44.739Z,35.23
2022-09-20T11:24:31.168Z,35.60
2022-09-20T11:27:18.698Z,36.02
2022-09-20T11:30:29.860Z,36.39
2022-09-20T11:33:20.808Z,35.97
2022-09-20T11:35:58.843Z,37.04
2022-09-20T11:38:35.104Z,35.79
2022-09-20T11:41:27.674Z,35.44
2022-09-20T11:44:00.583Z,36.14
2022-09-20T11:46:37.293Z,35.61
2022-09-20T11:49:16.338Z,35.60
2022-09-20T11:52:03.634Z,36.85
2022-09-20T11:54:58.251Z,36.89
2022-09-20T11:57:25.789Z,36.38
2022-09-20T11:59:59.305Z,36.32
2022-09-20T12:02:32.038Z,36.24
2022-09-20T12:05:02.110Z,36.01
2022-09-20T12:07:36.453Z,36.12
2022-09-20T12:10:10.890Z,35.83
2022-09-20T12:12:39.628Z,36.72
2022-09-20T12:15:29.867Z,35.96
2022-09-20T12:17:56.707Z,36.00
2022-09-20T12:20:32.937Z,35.38
2022-09-20T12:23:37.006Z,34.79
2022-09-20T12:26:21.903Z,34.78
2022-09-20T12:29:01.162Z,34.58
2022-09-20T12:31:34.433Z,33.82
2022-09-20T12:34:24.610Z,34.32
2022-09-20T12:36:54.041Z,34.90
2022-09-20T12:39:30.093Z,35.21
2022-09-20T12:42:03.243Z,34.54
2022-09-20T12:44:47.453Z,34.20
2022-09-20T12:47:14.545Z,34.12
2022-09-20T12:50:06.105Z,34.06
2022-09-20T12:52:50.750Z,33.75
2022-09-20T12:55:42.583Z,33.11
2022-09-20T12:58:12.162Z,33.23
2022-09-20T13:00:46.658Z,32.43
2022-09-20T13:03:35.034Z,32.46
2022-09-20T13:06:08.905Z,32.84
2022-09-20T13:08:43.467Z,32.79
2022-09-20T13:11:18.713Z,32.41
2022-09-20T13:14:04.381Z,32.39
2022-09-20T13:16:40.493Z,32.14
2022-09-20T13:19:16.857Z,32.79
2022-09-20T13:22:14.441Z,32.37
2022-09-20T13:24:48.500Z,31.86
2022-09-20T13:27:32.769Z,32.13
2022-09-20T13:30:31.934Z,31.50
2022-09-20T13:33:17.557Z,31.84
2022-09-20T13:35:48.468Z,31.76
2022-09-20T13:38:25.187Z,31.39
2022-09-20T13:40:54.380Z,32.14
2022-09-20T13:43:36.965Z,31.87
2022-09-20T13:46:16.690Z,31.48
2022-09-20T13:48:47.350Z,31.58
2022-09-20T13:51:40.734Z,31.58
2022-09-20T13:54:22.263Z,31.03
2022-09-20T13:56:50.994Z,31.60
2022-09-20T13:59:19.624Z,31.59
2022-09-20T14:01:53.100Z,31.23
2022-09-20T14:04:25.040Z,31.65
2022-09-20T14:06:56.503Z,32.57
2022-09-20T14:09:33.066Z,33.75
2022-09-20T14:12:01.445Z,34.17
2022-09-20T14:14:29.187Z,34.02
2022-09-20T14:16:58.278Z,34.25
2022-09-20T14:19:37.433Z,34.03
2022-09-20T14:22:05.453Z,34.56
2022-09-20T14:24:35.716Z,34.32
2022-09-20T14:27:22.433Z,35.08
2022-09-20T14:29:54.987Z,34.00
2022-09-20T14:32:42.760Z,33.66
2022-09-20T14:35:31.555Z,33.82
2022-09-20T14:38:06.154Z,32.88
2022-09-20T14:40:44.787Z,33.67
2022-09-20T14:43:29.391Z,34.63
2022-09-20T14:46:18.729Z,35.35
2022-09-20T14:48:46.528Z,34.43
2022-09-20T14:51:22.345Z,34.70
2022-09-20T14:54:07.319Z,33.75
2022-09-20T14:56:37.429Z,34.22
2022-09-20T14:59:14.642Z,34.28
2022-09-20T15:01:46.434Z,34.51
2022-09-20T15:04:25.549Z,34.39
2022-09-20T15:06:55.122Z,33.91
2022-09-20T15:09:23.006Z,34.01
2022-09-20T15:12:20.393Z,34.46
2022-09-20T15:14:48.345Z,34.38
2022-09-20T15:17:20.897Z,34.59
2022-09-20T15:19:49.439Z,35.99
2022-09-20T15:22:16.361Z,37.54
2022-09-20T15:24:43.678Z,38.84
2022-09-20T15:27:13.523Z,39.82
2022-09-20T15:29:40.407Z,39.64
2022-09-20T15:32:09.585Z,40.31
2022-09-20T15:34:36.392Z,41.18
2022-09-20T15:37:03.439Z,42.03
2022-09-20T15:39:30.274Z,42.43
2022-09-20T15:41:57.430Z,42.53
2022-09-20T15:44:24.372Z,42.81
2022-09-20T15:46:51.617Z,43.93
2022-09-20T15:49:18.602Z,44.22
2022-09-20T15:51:46.465Z,44.81
2022-09-20T15:54:14.900Z,44.55
2022-09-20T15:56:42.281Z,44.86
2022-09-20T15:59:11.563Z,45.09
2022-09-20T16:01:41.972Z,44.99
2022-09-20T16:04:19.676Z,45.03
2022-09-20T16:06:49.599Z,45.34
2022-09-20T16:09:18.450Z,45.52
2022-09-20T16:11:45.919Z,46.00
2022-09-20T16:14:13.069Z,46.04
2022-09-20T16:16:40.823Z,46.58
2022-09-20T16:19:22.011Z,46.91
2022-09-20T16:21:57.781Z,47.18
2022-09-20T16:24:30.969Z,47.60
2022-09-20T16:26:59.279Z,48.32
2022-09-20T16:29:27.120Z,48.65
2022-09-20T16:31:55.060Z,49.06
2022-09-20T16:34:31.132Z,49.67
2022-09-20T16:37:03.050Z,50.30
2022-09-20T16:39:31.422Z,50.48
2022-09-20T16:42:06.801Z,50.81
2022-09-20T16:44:36.001Z,50.78
2022-09-20T16:47:08.152Z,51.23
2022-09-20T16:49:36.356Z,51.37
2022-09-20T16:52:07.604Z,51.13
2022-09-20T16:54:34.710Z,51.36
2022-09-20T16:57:01.622Z,51.62
2022-09-20T16:59:28.720Z,51.59
2022-09-20T17:01:55.705Z,52.83
2022-09-20T17:04:22.905Z,52.29
2022-09-20T17:06:51.544Z,52.95
2022-09-20T17:09:18.617Z,52.54
2022-09-20T17:11:49.209Z,52.69
2022-09-20T17:14:17.921Z,53.58
2022-09-20T17:16:48.518Z,54.24
2022-09-20T17:19:18.740Z,54.79
2022-09-20T17:21:50.329Z,54.74
2022-09-20T17:24:19.767Z,54.74
2022-09-20T17:26:47.237Z,54.77
2022-09-20T17:29:17.589Z,54.77
2022-09-20T17:31:51.505Z,55.38
2022-09-20T17:34:22.155Z,55.21
2022-09-20T17:36:50.570Z,55.64
2022-09-20T17:39:17.971Z,55.56
2022-09-20T17:41:47.063Z,56.02
2022-09-20T17:44:26.668Z,56.12
2022-09-20T17:47:07.301Z,56.45
2022-09-20T17:49:54.684Z,56.63
2022-09-20T17:52:28.198Z,56.66
2022-09-20T17:54:55.089Z,56.38
2022-09-20T17:57:21.906Z,56.16
2022-09-20T17:59:48.739Z,55.78
2022-09-20T18:02:16.061Z,56.03
2022-09-20T18:04:42.891Z,56.18
2022-09-20T18:07:09.815Z,56.10
2022-09-20T18:09:36.726Z,56.15
2022-09-20T18:12:05.133Z,55.90
2022-09-20T18:14:32.735Z,55.75
2022-09-20T18:17:01.636Z,56.04
2022-09-20T18:19:35.222Z,56.12
2022-09-20T18:22:02.887Z,56.04
2022-09-20T18:24:30.504Z,56.62
2022-09-20T18:26:57.348Z,56.76
2022-09-20T18:29:25.123Z,57.38
2022-09-20T18:31:54.787Z,57.72
2022-09-20T18:34:24.352Z,58.00
2022-09-20T18:36:54.345Z,57.83
2022-09-20T18:39:27.645Z,58.22
2022-09-20T18:41:55.157Z,58.46
2022-09-20T18:44:23.117Z,58.77
2022-09-20T18:46:55.324Z,58.88
2022-09-20T18:49:22.618Z,59.40
2022-09-20T18:51:49.765Z,59.45
2022-09-20T18:54:17.823Z,59.89
2022-09-20T18:56:46.717Z,60.25
2022-09-20T18:59:18.207Z,60.31
2022-09-20T19:01:54.087Z,60.27
2022-09-20T19:04:39.868Z,60.51
2022-09-20T19:07:16.214Z,60.49
2022-09-20T19:09:50.634Z,60.25
2022-09-20T19:12:37.226Z,60.72
2022-09-20T19:15:13.099Z,61.00
2022-09-20T19:17:48.146Z,59.93
2022-09-20T19:20:20.743Z,60.20
2022-09-20T19:23:06.318Z,60.38
2022-09-20T19:25:43.541Z,61.39
2022-09-20T19:28:12.587Z,62.19
2022-09-20T19:30:40.730Z,62.60
2022-09-20T19:33:17.944Z,62.90
2022-09-20T19:35:50.137Z,64.23
2022-09-20T19:38:26.069Z,63.41
2022-09-20T19:41:20.701Z,63.49
2022-09-20T19:43:56.730Z,64.41
2022-09-20T19:46:46.396Z,64.34
2022-09-20T19:49:32.072Z,64.52
2022-09-20T19:51:59.208Z,62.94
2022-09-20T19:54:26.456Z,62.78
2022-09-20T19:56:54.995Z,63.08
2022-09-20T19:59:24.462Z,62.75
2022-09-20T20:01:52.707Z,63.15
2022-09-20T20:04:21.044Z,63.01
2022-09-20T20:06:47.990Z,63.76
2022-09-20T20:09:23.024Z,63.79
2022-09-20T20:12:01.746Z,63.38
2022-09-20T20:14:50.970Z,63.13
2022-09-20T20:17:46.446Z,63.49
2022-09-20T20:20:22.614Z,64.29
2022-09-20T20:23:11.604Z,64.84
2022-09-20T20:25:50.414Z,65.22
2022-09-20T20:28:17.333Z,65.15
2022-09-20T20:30:44.135Z,65.64
2022-09-20T20:33:17.340Z,65.25
2022-09-20T20:35:44.103Z,65.59
2022-09-20T20:38:11.925Z,66.87
2022-09-20T20:40:38.784Z,66.03
2022-09-20T20:43:06.283Z,66.49
2022-09-20T20:45:33.200Z,67.01
2022-09-20T20:48:00.118Z,66.65
2022-09-20T20:50:28.338Z,67.19
2022-09-20T20:52:56.589Z,67.18
2022-09-20T20:55:24.861Z,67.64
2022-09-20T20:58:01.276Z,67.48
2022-09-20T21:00:28.507Z,67.72
2022-09-20T21:03:03.098Z,67.76
2022-09-20T21:05:31.087Z,68.02
2022-09-20T21:07:58.945Z,68.67
2022-09-20T21:10:28.842Z,69.07
2022-09-20T21:12:55.786Z,69.62
2022-09-20T21:15:22.767Z,69.53
2022-09-20T21:17:53.359Z,69.88
2022-09-20T21:20:21.726Z,70.60
2022-09-20T21:22:48.602Z,70.41
2022-09-20T21:25:15.488Z,70.69
2022-09-20T21:27:42.862Z,71.30
2022-09-20T21:30:10.220Z,71.59
2022-09-20T21:32:37.064Z,72.27
2022-09-20T21:35:04.133Z,73.02
2022-09-20T21:37:31.009Z,73.03
2022-09-20T21:39:57.966Z,73.12
2022-09-20T21:42:27.395Z,72.94
2022-09-20T21:44:54.575Z,73.34
2022-09-20T21:47:21.554Z,73.25
2022-09-20T21:49:48.687Z,73.43
2022-09-20T21:52:15.866Z,73.99
2022-09-20T21:54:46.746Z,73.91
2022-09-20T21:57:13.993Z,74.02
2022-09-20T21:59:41.870Z,74.57
2022-09-20T22:02:09.345Z,74.78
2022-09-20T22:04:36.686Z,74.66
2022-09-20T22:07:04.642Z,74.89
2022-09-20T22:09:31.672Z,75.35
2022-09-20T22:11:58.731Z,75.33
2022-09-20T22:14:25.970Z,75.64
2022-09-20T22:16:53.233Z,75.80
2022-09-20T22:19:20.695Z,75.41
2022-09-20T22:21:50.058Z,75.45
2022-09-20T22:24:17.171Z,75.89
2022-09-20T22:26:46.009Z,76.26
2022-09-20T22:29:13.010Z,76.54
2022-09-20T22:31:45.326Z,77.10
2022-09-20T22:34:22.024Z,77.04
2022-09-20T22:36:49.673Z,77.23
2022-09-20T22:39:17.438Z,77.64
2022-09-20T22:41:45.087Z,77.63
2022-09-20T22:44:12.593Z,78.17
2022-09-20T22:46:40.114Z,78.42
2022-09-20T22:49:08.693Z,78.65
2022-09-20T22:51:36.084Z,78.75
2022-09-20T22:54:08.371Z,78.72
2022-09-20T22:56:36.443Z,78.18
2022-09-20T22:59:11.075Z,77.82
2022-09-20T23:01:44.187Z,77.73
2022-09-20T23:04:13.783Z,78.13
2022-09-20T23:06:40.625Z,78.38
2022-09-20T23:09:10.364Z,77.82
2022-09-20T23:11:39.021Z,78.69
2022-09-20T23:14:06.781Z,78.11
2022-09-20T23:16:36.642Z,78.46
2022-09-20T23:19:05.746Z,78.71
2022-09-20T23:21:33.655Z,79.27
2022-09-20T23:24:02.746Z,78.69
2022-09-20T23:26:32.846Z,78.76
2022-09-20T23:29:05.655Z,78.23
2022-09-20T23:31:34.997Z,78.45
2022-09-20T23:34:04.569Z,78.09
2022-09-20T23:36:33.347Z,78.35
2022-09-20T23:39:00.262Z,78.66
2022-09-20T23:41:28.469Z,78.58
2022-09-20T23:43:55.564Z,78.57
2022-09-20T23:46:24.426Z,78.01
2022-09-20T23:48:51.475Z,78.81
2022-09-20T23:51:22.611Z,78.45
2022-09-20T23:53:50.493Z,78.43
2022-09-20T23:56:18.065Z,79.26
2022-09-20T23:58:45.245Z,79.57
